sensor_id;sensor_type;location;lat;lon;timestamp;P1;durP1;ratioP1;P2;durP2;ratioP2
80159;SDS011;69486;59.082;37.928;2024-01-15T00:01:47;3.90;;;3.60;;
80159;SDS011;69486;59.082;37.928;2024-01-15T00:04:13;9.95;;;5.18;;
80159;SDS011;69486;59.082;37.928;2024-01-15T00:06:39;5.05;;;4.70;;
80159;SDS011;69486;59.082;37.928;2024-01-15T00:09:05;5.22;;;4.53;;
80159;SDS011;69486;59.082;37.928;2024-01-15T00:11:32;4.22;;;3.95;;
80159;SDS011;69486;59.082;37.928;2024-01-15T00:13:57;4.07;;;3.88;;
80159;SDS011;69486;59.082;37.928;2024-01-15T00:16:23;4.82;;;4.43;;
80159;SDS011;69486;59.082;37.928;2024-01-15T00:18:49;5.43;;;4.95;;
80159;SDS011;69486;59.082;37.928;2024-01-15T00:21:15;4.47;;;4.07;;
80159;SDS011;69486;59.082;37.928;2024-01-15T00:23:44;4.63;;;4.32;;
80159;SDS011;69486;59.082;37.928;2024-01-15T00:26:10;5.38;;;4.88;;
80159;SDS011;69486;59.082;37.928;2024-01-15T00:28:36;5.00;;;4.35;;
80159;SDS011;69486;59.082;37.928;2024-01-15T00:31:01;5.38;;;4.68;;
80159;SDS011;69486;59.082;37.928;2024-01-15T00:33:27;7.68;;;4.78;;
80159;SDS011;69486;59.082;37.928;2024-01-15T00:35:54;4.85;;;4.40;;
80159;SDS011;69486;59.082;37.928;2024-01-15T00:38:20;5.63;;;4.63;;
80159;SDS011;69486;59.082;37.928;2024-01-15T00:40:45;4.25;;;3.92;;
80159;SDS011;69486;59.082;37.928;2024-01-15T00:43:11;5.90;;;4.75;;
80159;SDS011;69486;59.082;37.928;2024-01-15T00:45:37;4.90;;;4.32;;
80159;SDS011;69486;59.082;37.928;2024-01-15T00:48:03;7.25;;;4.85;;
80159;SDS011;69486;59.082;37.928;2024-01-15T00:50:29;4.28;;;3.97;;
80159;SDS011;69486;59.082;37.928;2024-01-15T00:52:55;4.85;;;4.32;;
80159;SDS011;69486;59.082;37.928;2024-01-15T00:55:21;4.70;;;4.28;;
80159;SDS011;69486;59.082;37.928;2024-01-15T00:57:46;4.82;;;4.43;;
80159;SDS011;69486;59.082;37.928;2024-01-15T01:00:12;4.35;;;3.95;;
80159;SDS011;69486;59.082;37.928;2024-01-15T01:02:38;4.80;;;4.38;;
80159;SDS011;69486;59.082;37.928;2024-01-15T01:05:04;4.47;;;4.10;;
80159;SDS011;69486;59.082;37.928;2024-01-15T01:07:30;5.25;;;4.82;;
80159;SDS011;69486;59.082;37.928;2024-01-15T01:09:55;3.95;;;3.67;;
80159;SDS011;69486;59.082;37.928;2024-01-15T01:12:21;5.15;;;4.38;;
80159;SDS011;69486;59.082;37.928;2024-01-15T01:14:49;4.28;;;3.83;;
80159;SDS011;69486;59.082;37.928;2024-01-15T01:17:15;9.32;;;4.85;;
80159;SDS011;69486;59.082;37.928;2024-01-15T01:19:40;3.75;;;3.45;;
80159;SDS011;69486;59.082;37.928;2024-01-15T01:22:06;4.35;;;4.00;;
80159;SDS011;69486;59.082;37.928;2024-01-15T01:24:32;4.45;;;4.15;;
80159;SDS011;69486;59.082;37.928;2024-01-15T01:26:57;6.15;;;4.40;;
80159;SDS011;69486;59.082;37.928;2024-01-15T01:29:23;4.55;;;4.18;;
80159;SDS011;69486;59.082;37.928;2024-01-15T01:31:49;4.60;;;4.30;;
80159;SDS011;69486;59.082;37.928;2024-01-15T01:34:15;4.88;;;4.45;;
80159;SDS011;69486;59.082;37.928;2024-01-15T01:36:41;4.10;;;3.70;;
80159;SDS011;69486;59.082;37.928;2024-01-15T01:39:08;5.32;;;4.78;;
80159;SDS011;69486;59.082;37.928;2024-01-15T01:41:34;5.90;;;5.30;;
80159;SDS011;69486;59.082;37.928;2024-01-15T01:44:00;3.63;;;3.33;;
80159;SDS011;69486;59.082;37.928;2024-01-15T01:46:27;6.55;;;4.30;;
80159;SDS011;69486;59.082;37.928;2024-01-15T01:48:54;6.35;;;4.10;;
80159;SDS011;69486;59.082;37.928;2024-01-15T01:51:21;4.22;;;3.88;;
80159;SDS011;69486;59.082;37.928;2024-01-15T01:53:48;5.78;;;3.97;;
80159;SDS011;69486;59.082;37.928;2024-01-15T01:56:14;6.03;;;4.35;;
80159;SDS011;69486;59.082;37.928;2024-01-15T01:58:40;5.18;;;4.72;;
80159;SDS011;69486;59.082;37.928;2024-01-15T02:01:06;3.85;;;3.55;;
80159;SDS011;69486;59.082;37.928;2024-01-15T02:03:32;5.70;;;4.10;;
80159;SDS011;69486;59.082;37.928;2024-01-15T02:05:59;3.83;;;3.53;;
80159;SDS011;69486;59.082;37.928;2024-01-15T02:08:25;5.00;;;4.10;;
80159;SDS011;69486;59.082;37.928;2024-01-15T02:10:51;6.38;;;4.07;;
80159;SDS011;69486;59.082;37.928;2024-01-15T02:13:17;4.72;;;4.32;;
80159;SDS011;69486;59.082;37.928;2024-01-15T02:15:43;4.82;;;4.07;;
80159;SDS011;69486;59.082;37.928;2024-01-15T02:18:09;4.72;;;4.32;;
80159;SDS011;69486;59.082;37.928;2024-01-15T02:20:35;4.88;;;4.05;;
80159;SDS011;69486;59.082;37.928;2024-01-15T02:23:05;5.95;;;4.75;;
80159;SDS011;69486;59.082;37.928;2024-01-15T02:25:31;4.40;;;4.10;;
80159;SDS011;69486;59.082;37.928;2024-01-15T02:27:56;5.03;;;4.32;;
80159;SDS011;69486;59.082;37.928;2024-01-15T02:30:22;5.07;;;4.20;;
80159;SDS011;69486;59.082;37.928;2024-01-15T02:32:49;4.63;;;4.22;;
80159;SDS011;69486;59.082;37.928;2024-01-15T02:35:15;9.88;;;4.25;;
80159;SDS011;69486;59.082;37.928;2024-01-15T02:37:41;4.47;;;3.88;;
80159;SDS011;69486;59.082;37.928;2024-01-15T02:40:08;6.13;;;4.00;;
80159;SDS011;69486;59.082;37.928;2024-01-15T02:42:34;7.28;;;5.50;;
80159;SDS011;69486;59.082;37.928;2024-01-15T02:45:00;5.82;;;4.95;;
80159;SDS011;69486;59.082;37.928;2024-01-15T02:47:26;4.53;;;4.13;;
80159;SDS011;69486;59.082;37.928;2024-01-15T02:49:51;4.47;;;4.05;;
80159;SDS011;69486;59.082;37.928;2024-01-15T02:52:17;6.53;;;4.63;;
80159;SDS011;69486;59.082;37.928;2024-01-15T02:54:43;3.97;;;3.72;;
80159;SDS011;69486;59.082;37.928;2024-01-15T02:57:09;4.85;;;4.45;;
80159;SDS011;69486;59.082;37.928;2024-01-15T02:59:35;6.43;;;5.07;;
80159;SDS011;69486;59.082;37.928;2024-01-15T03:02:01;5.10;;;4.40;;
80159;SDS011;69486;59.082;37.928;2024-01-15T03:04:27;5.50;;;4.90;;
80159;SDS011;69486;59.082;37.928;2024-01-15T03:06:52;4.93;;;4.53;;
80159;SDS011;69486;59.082;37.928;2024-01-15T03:09:18;4.25;;;3.95;;
80159;SDS011;69486;59.082;37.928;2024-01-15T03:11:44;6.35;;;4.45;;
80159;SDS011;69486;59.082;37.928;2024-01-15T03:14:10;4.75;;;4.38;;
80159;SDS011;69486;59.082;37.928;2024-01-15T03:16:36;4.63;;;4.22;;
80159;SDS011;69486;59.082;37.928;2024-01-15T03:19:02;4.28;;;3.88;;
80159;SDS011;69486;59.082;37.928;2024-01-15T03:21:28;5.35;;;4.95;;
80159;SDS011;69486;59.082;37.928;2024-01-15T03:23:54;4.70;;;4.30;;
80159;SDS011;69486;59.082;37.928;2024-01-15T03:26:19;4.38;;;3.97;;
80159;SDS011;69486;59.082;37.928;2024-01-15T03:28:45;4.10;;;3.80;;
80159;SDS011;69486;59.082;37.928;2024-01-15T03:31:11;5.22;;;4.72;;
80159;SDS011;69486;59.082;37.928;2024-01-15T03:33:37;4.03;;;3.70;;
80159;SDS011;69486;59.082;37.928;2024-01-15T03:36:03;7.22;;;4.78;;
80159;SDS011;69486;59.082;37.928;2024-01-15T03:38:29;5.20;;;4.80;;
80159;SDS011;69486;59.082;37.928;2024-01-15T03:40:55;4.85;;;4.20;;
80159;SDS011;69486;59.082;37.928;2024-01-15T03:43:21;4.43;;;4.13;;
80159;SDS011;69486;59.082;37.928;2024-01-15T03:45:47;5.07;;;4.55;;
80159;SDS011;69486;59.082;37.928;2024-01-15T03:48:13;4.55;;;4.13;;
80159;SDS011;69486;59.082;37.928;2024-01-15T03:50:38;5.97;;;3.92;;
80159;SDS011;69486;59.082;37.928;2024-01-15T03:53:05;5.25;;;4.68;;
80159;SDS011;69486;59.082;37.928;2024-01-15T03:55:30;5.25;;;4.80;;
80159;SDS011;69486;59.082;37.928;2024-01-15T03:57:57;5.93;;;4.80;;
80159;SDS011;69486;59.082;37.928;2024-01-15T04:00:22;4.88;;;4.40;;
80159;SDS011;69486;59.082;37.928;2024-01-15T04:02:48;5.13;;;4.63;;
80159;SDS011;69486;59.082;37.928;2024-01-15T04:05:14;4.88;;;4.40;;
80159;SDS011;69486;59.082;37.928;2024-01-15T04:07:40;6.35;;;5.22;;
80159;SDS011;69486;59.082;37.928;2024-01-15T04:10:06;5.47;;;5.07;;
80159;SDS011;69486;59.082;37.928;2024-01-15T04:12:32;5.18;;;4.82;;
80159;SDS011;69486;59.082;37.928;2024-01-15T04:14:58;4.35;;;4.05;;
80159;SDS011;69486;59.082;37.928;2024-01-15T04:17:23;6.30;;;5.50;;
80159;SDS011;69486;59.082;37.928;2024-01-15T04:19:49;5.47;;;5.00;;
80159;SDS011;69486;59.082;37.928;2024-01-15T04:22:15;5.68;;;4.57;;
80159;SDS011;69486;59.082;37.928;2024-01-15T04:24:41;4.82;;;4.43;;
80159;SDS011;69486;59.082;37.928;2024-01-15T04:27:07;7.70;;;4.18;;
80159;SDS011;69486;59.082;37.928;2024-01-15T04:29:33;5.60;;;5.13;;
80159;SDS011;69486;59.082;37.928;2024-01-15T04:31:59;5.45;;;4.93;;
80159;SDS011;69486;59.082;37.928;2024-01-15T04:34:25;4.88;;;4.32;;
80159;SDS011;69486;59.082;37.928;2024-01-15T04:36:51;5.18;;;4.72;;
80159;SDS011;69486;59.082;37.928;2024-01-15T04:39:17;4.47;;;4.15;;
80159;SDS011;69486;59.082;37.928;2024-01-15T04:41:44;4.32;;;3.97;;
80159;SDS011;69486;59.082;37.928;2024-01-15T04:44:10;5.43;;;4.35;;
80159;SDS011;69486;59.082;37.928;2024-01-15T04:46:36;4.68;;;4.32;;
80159;SDS011;69486;59.082;37.928;2024-01-15T04:49:02;4.22;;;3.88;;
80159;SDS011;69486;59.082;37.928;2024-01-15T04:51:28;3.85;;;3.63;;
80159;SDS011;69486;59.082;37.928;2024-01-15T04:53:54;4.40;;;4.10;;
80159;SDS011;69486;59.082;37.928;2024-01-15T04:56:20;4.03;;;3.80;;
80159;SDS011;69486;59.082;37.928;2024-01-15T04:58:46;5.78;;;3.90;;
80159;SDS011;69486;59.082;37.928;2024-01-15T05:01:12;4.30;;;3.95;;
80159;SDS011;69486;59.082;37.928;2024-01-15T05:03:38;5.13;;;4.68;;
80159;SDS011;69486;59.082;37.928;2024-01-15T05:06:05;4.30;;;3.75;;
80159;SDS011;69486;59.082;37.928;2024-01-15T05:08:31;4.20;;;3.88;;
80159;SDS011;69486;59.082;37.928;2024-01-15T05:10:57;6.32;;;3.90;;
80159;SDS011;69486;59.082;37.928;2024-01-15T05:13:23;4.78;;;4.32;;
80159;SDS011;69486;59.082;37.928;2024-01-15T05:15:48;4.40;;;4.10;;
80159;SDS011;69486;59.082;37.928;2024-01-15T05:18:15;5.05;;;3.70;;
80159;SDS011;69486;59.082;37.928;2024-01-15T05:20:40;4.75;;;4.35;;
80159;SDS011;69486;59.082;37.928;2024-01-15T05:23:07;4.72;;;4.32;;
80159;SDS011;69486;59.082;37.928;2024-01-15T05:25:33;4.15;;;3.85;;
80159;SDS011;69486;59.082;37.928;2024-01-15T05:27:59;4.32;;;4.05;;
80159;SDS011;69486;59.082;37.928;2024-01-15T05:30:25;4.82;;;4.47;;
80159;SDS011;69486;59.082;37.928;2024-01-15T05:32:51;4.13;;;3.83;;
80159;SDS011;69486;59.082;37.928;2024-01-15T05:35:17;4.35;;;3.90;;
80159;SDS011;69486;59.082;37.928;2024-01-15T05:37:44;5.00;;;4.60;;
80159;SDS011;69486;59.082;37.928;2024-01-15T05:40:10;4.43;;;4.00;;
80159;SDS011;69486;59.082;37.928;2024-01-15T05:42:36;4.43;;;4.03;;
80159;SDS011;69486;59.082;37.928;2024-01-15T05:45:02;4.65;;;4.25;;
80159;SDS011;69486;59.082;37.928;2024-01-15T05:47:30;4.13;;;3.83;;
80159;SDS011;69486;59.082;37.928;2024-01-15T05:49:56;4.30;;;3.92;;
80159;SDS011;69486;59.082;37.928;2024-01-15T05:52:22;4.13;;;3.85;;
80159;SDS011;69486;59.082;37.928;2024-01-15T05:54:49;5.32;;;4.22;;
80159;SDS011;69486;59.082;37.928;2024-01-15T05:57:14;4.43;;;3.83;;
80159;SDS011;69486;59.082;37.928;2024-01-15T05:59:40;4.22;;;3.90;;
80159;SDS011;69486;59.082;37.928;2024-01-15T06:02:06;3.78;;;3.58;;
80159;SDS011;69486;59.082;37.928;2024-01-15T06:04:31;3.92;;;3.70;;
80159;SDS011;69486;59.082;37.928;2024-01-15T06:06:57;5.60;;;4.55;;
80159;SDS011;69486;59.082;37.928;2024-01-15T06:09:23;11.32;;;4.90;;
80159;SDS011;69486;59.082;37.928;2024-01-15T06:11:49;3.88;;;3.55;;
80159;SDS011;69486;59.082;37.928;2024-01-15T06:14:15;3.95;;;3.60;;
80159;SDS011;69486;59.082;37.928;2024-01-15T06:16:40;4.20;;;3.92;;
80159;SDS011;69486;59.082;37.928;2024-01-15T06:19:06;4.40;;;4.07;;
80159;SDS011;69486;59.082;37.928;2024-01-15T06:21:31;4.50;;;4.03;;
80159;SDS011;69486;59.082;37.928;2024-01-15T06:23:57;3.88;;;3.67;;
80159;SDS011;69486;59.082;37.928;2024-01-15T06:26:23;4.18;;;3.83;;
80159;SDS011;69486;59.082;37.928;2024-01-15T06:28:51;4.38;;;4.05;;
80159;SDS011;69486;59.082;37.928;2024-01-15T06:31:17;4.63;;;4.32;;
80159;SDS011;69486;59.082;37.928;2024-01-15T06:33:43;4.20;;;3.90;;
80159;SDS011;69486;59.082;37.928;2024-01-15T06:36:10;4.47;;;3.78;;
80159;SDS011;69486;59.082;37.928;2024-01-15T06:38:36;3.95;;;3.65;;
80159;SDS011;69486;59.082;37.928;2024-01-15T06:41:02;3.78;;;3.47;;
80159;SDS011;69486;59.082;37.928;2024-01-15T06:43:27;3.83;;;3.53;;
80159;SDS011;69486;59.082;37.928;2024-01-15T06:45:53;4.22;;;3.90;;
80159;SDS011;69486;59.082;37.928;2024-01-15T06:48:19;4.60;;;4.25;;
80159;SDS011;69486;59.082;37.928;2024-01-15T06:50:44;3.50;;;3.20;;
80159;SDS011;69486;59.082;37.928;2024-01-15T06:53:10;4.70;;;4.40;;
80159;SDS011;69486;59.082;37.928;2024-01-15T06:55:36;5.75;;;4.05;;
80159;SDS011;69486;59.082;37.928;2024-01-15T06:58:02;3.50;;;3.30;;
80159;SDS011;69486;59.082;37.928;2024-01-15T07:00:28;3.78;;;3.53;;
80159;SDS011;69486;59.082;37.928;2024-01-15T07:02:54;4.45;;;4.05;;
80159;SDS011;69486;59.082;37.928;2024-01-15T07:05:23;3.90;;;3.60;;
80159;SDS011;69486;59.082;37.928;2024-01-15T07:07:49;4.50;;;4.10;;
80159;SDS011;69486;59.082;37.928;2024-01-15T07:10:14;4.93;;;4.00;;
80159;SDS011;69486;59.082;37.928;2024-01-15T07:12:43;5.22;;;4.82;;
80159;SDS011;69486;59.082;37.928;2024-01-15T07:15:09;4.63;;;4.32;;
80159;SDS011;69486;59.082;37.928;2024-01-15T07:17:35;4.88;;;4.47;;
80159;SDS011;69486;59.082;37.928;2024-01-15T07:20:01;4.60;;;4.28;;
80159;SDS011;69486;59.082;37.928;2024-01-15T07:22:27;4.55;;;4.13;;
80159;SDS011;69486;59.082;37.928;2024-01-15T07:24:53;4.10;;;3.78;;
80159;SDS011;69486;59.082;37.928;2024-01-15T07:27:19;4.75;;;4.45;;
80159;SDS011;69486;59.082;37.928;2024-01-15T07:29:45;5.03;;;4.53;;
80159;SDS011;69486;59.082;37.928;2024-01-15T07:32:11;4.57;;;4.18;;
80159;SDS011;69486;59.082;37.928;2024-01-15T07:34:37;4.13;;;3.83;;
80159;SDS011;69486;59.082;37.928;2024-01-15T07:37:03;4.57;;;4.22;;
80159;SDS011;69486;59.082;37.928;2024-01-15T07:39:29;4.72;;;4.43;;
80159;SDS011;69486;59.082;37.928;2024-01-15T07:41:56;5.63;;;4.10;;
80159;SDS011;69486;59.082;37.928;2024-01-15T07:44:21;4.07;;;3.78;;
80159;SDS011;69486;59.082;37.928;2024-01-15T07:46:47;3.90;;;3.60;;
80159;SDS011;69486;59.082;37.928;2024-01-15T07:49:13;7.75;;;4.45;;
80159;SDS011;69486;59.082;37.928;2024-01-15T07:51:39;4.53;;;3.47;;
80159;SDS011;69486;59.082;37.928;2024-01-15T07:54:05;4.10;;;3.85;;
80159;SDS011;69486;59.082;37.928;2024-01-15T07:56:31;4.82;;;4.43;;
80159;SDS011;69486;59.082;37.928;2024-01-15T07:58:57;4.57;;;4.18;;
80159;SDS011;69486;59.082;37.928;2024-01-15T08:01:23;5.55;;;4.03;;
80159;SDS011;69486;59.082;37.928;2024-01-15T08:03:48;5.07;;;4.57;;
80159;SDS011;69486;59.082;37.928;2024-01-15T08:06:14;5.13;;;4.70;;
80159;SDS011;69486;59.082;37.928;2024-01-15T08:08:40;4.90;;;4.50;;
80159;SDS011;69486;59.082;37.928;2024-01-15T08:11:06;5.10;;;4.65;;
80159;SDS011;69486;59.082;37.928;2024-01-15T08:13:32;5.60;;;5.00;;
80159;SDS011;69486;59.082;37.928;2024-01-15T08:15:57;4.68;;;4.38;;
80159;SDS011;69486;59.082;37.928;2024-01-15T08:18:23;4.55;;;4.22;;
80159;SDS011;69486;59.082;37.928;2024-01-15T08:20:49;5.68;;;5.18;;
80159;SDS011;69486;59.082;37.928;2024-01-15T08:23:16;4.85;;;4.45;;
80159;SDS011;69486;59.082;37.928;2024-01-15T08:25:42;5.03;;;4.72;;
80159;SDS011;69486;59.082;37.928;2024-01-15T08:28:08;4.97;;;4.60;;
80159;SDS011;69486;59.082;37.928;2024-01-15T08:30:34;4.28;;;3.97;;
80159;SDS011;69486;59.082;37.928;2024-01-15T08:32:59;4.47;;;4.15;;
80159;SDS011;69486;59.082;37.928;2024-01-15T08:35:25;5.00;;;4.63;;
80159;SDS011;69486;59.082;37.928;2024-01-15T08:37:52;6.00;;;5.40;;
80159;SDS011;69486;59.082;37.928;2024-01-15T08:40:18;4.15;;;3.75;;
80159;SDS011;69486;59.082;37.928;2024-01-15T08:42:44;4.78;;;4.32;;
80159;SDS011;69486;59.082;37.928;2024-01-15T08:45:10;4.80;;;4.40;;
80159;SDS011;69486;59.082;37.928;2024-01-15T08:47:36;6.35;;;4.30;;
80159;SDS011;69486;59.082;37.928;2024-01-15T08:50:02;5.53;;;4.75;;
80159;SDS011;69486;59.082;37.928;2024-01-15T08:52:28;5.35;;;4.85;;
80159;SDS011;69486;59.082;37.928;2024-01-15T08:54:55;5.25;;;4.70;;
80159;SDS011;69486;59.082;37.928;2024-01-15T08:57:21;4.80;;;4.40;;
80159;SDS011;69486;59.082;37.928;2024-01-15T08:59:47;4.47;;;4.07;;
80159;SDS011;69486;59.082;37.928;2024-01-15T09:02:13;4.55;;;4.25;;
80159;SDS011;69486;59.082;37.928;2024-01-15T09:04:38;5.05;;;4.45;;
80159;SDS011;69486;59.082;37.928;2024-01-15T09:07:04;5.28;;;4.78;;
80159;SDS011;69486;59.082;37.928;2024-01-15T09:09:30;4.82;;;4.35;;
80159;SDS011;69486;59.082;37.928;2024-01-15T09:11:56;5.07;;;4.63;;
80159;SDS011;69486;59.082;37.928;2024-01-15T09:14:22;4.95;;;4.50;;
80159;SDS011;69486;59.082;37.928;2024-01-15T09:16:49;6.35;;;4.97;;
80159;SDS011;69486;59.082;37.928;2024-01-15T09:19:15;5.72;;;5.22;;
80159;SDS011;69486;59.082;37.928;2024-01-15T09:21:41;5.30;;;4.80;;
80159;SDS011;69486;59.082;37.928;2024-01-15T09:24:06;6.85;;;4.97;;
80159;SDS011;69486;59.082;37.928;2024-01-15T09:26:32;4.53;;;4.20;;
80159;SDS011;69486;59.082;37.928;2024-01-15T09:28:58;5.05;;;4.65;;
80159;SDS011;69486;59.082;37.928;2024-01-15T09:31:23;5.40;;;4.93;;
80159;SDS011;69486;59.082;37.928;2024-01-15T09:33:49;5.30;;;4.68;;
80159;SDS011;69486;59.082;37.928;2024-01-15T09:36:18;5.22;;;4.72;;
80159;SDS011;69486;59.082;37.928;2024-01-15T09:38:43;4.55;;;4.15;;
80159;SDS011;69486;59.082;37.928;2024-01-15T09:41:09;5.38;;;4.80;;
80159;SDS011;69486;59.082;37.928;2024-01-15T09:43:36;5.50;;;5.10;;
80159;SDS011;69486;59.082;37.928;2024-01-15T09:46:03;6.07;;;5.25;;
80159;SDS011;69486;59.082;37.928;2024-01-15T09:48:28;5.40;;;4.90;;
80159;SDS011;69486;59.082;37.928;2024-01-15T09:50:54;4.82;;;3.90;;
80159;SDS011;69486;59.082;37.928;2024-01-15T09:53:21;5.85;;;5.28;;
80159;SDS011;69486;59.082;37.928;2024-01-15T09:55:47;5.28;;;4.78;;
80159;SDS011;69486;59.082;37.928;2024-01-15T09:58:15;7.28;;;4.78;;
80159;SDS011;69486;59.082;37.928;2024-01-15T10:00:40;5.80;;;5.10;;
80159;SDS011;69486;59.082;37.928;2024-01-15T10:03:09;5.57;;;5.05;;
80159;SDS011;69486;59.082;37.928;2024-01-15T10:05:37;5.78;;;4.95;;
80159;SDS011;69486;59.082;37.928;2024-01-15T10:08:02;4.85;;;4.53;;
80159;SDS011;69486;59.082;37.928;2024-01-15T10:10:29;5.85;;;5.35;;
80159;SDS011;69486;59.082;37.928;2024-01-15T10:12:54;4.97;;;4.55;;
80159;SDS011;69486;59.082;37.928;2024-01-15T10:15:23;5.68;;;5.03;;
80159;SDS011;69486;59.082;37.928;2024-01-15T10:17:50;6.30;;;5.60;;
80159;SDS011;69486;59.082;37.928;2024-01-15T10:20:16;6.15;;;5.60;;
80159;SDS011;69486;59.082;37.928;2024-01-15T10:22:42;5.40;;;4.93;;
80159;SDS011;69486;59.082;37.928;2024-01-15T10:25:13;5.40;;;4.93;;
80159;SDS011;69486;59.082;37.928;2024-01-15T10:27:42;5.85;;;4.70;;
80159;SDS011;69486;59.082;37.928;2024-01-15T10:30:08;5.35;;;4.93;;
80159;SDS011;69486;59.082;37.928;2024-01-15T10:32:34;6.20;;;5.32;;
80159;SDS011;69486;59.082;37.928;2024-01-15T10:35:00;5.72;;;5.18;;
80159;SDS011;69486;59.082;37.928;2024-01-15T10:37:26;5.95;;;5.35;;
80159;SDS011;69486;59.082;37.928;2024-01-15T10:39:52;5.30;;;4.80;;
80159;SDS011;69486;59.082;37.928;2024-01-15T10:42:18;4.88;;;4.47;;
80159;SDS011;69486;59.082;37.928;2024-01-15T10:44:44;5.22;;;4.72;;
80159;SDS011;69486;59.082;37.928;2024-01-15T10:47:11;6.00;;;5.50;;
80159;SDS011;69486;59.082;37.928;2024-01-15T10:49:37;6.05;;;5.47;;
80159;SDS011;69486;59.082;37.928;2024-01-15T10:52:04;7.38;;;5.20;;
80159;SDS011;69486;59.082;37.928;2024-01-15T10:54:29;5.75;;;5.10;;
80159;SDS011;69486;59.082;37.928;2024-01-15T10:56:58;6.20;;;5.25;;
80159;SDS011;69486;59.082;37.928;2024-01-15T10:59:24;4.82;;;4.35;;
80159;SDS011;69486;59.082;37.928;2024-01-15T11:01:54;5.28;;;4.88;;
80159;SDS011;69486;59.082;37.928;2024-01-15T11:04:20;5.78;;;5.28;;
80159;SDS011;69486;59.082;37.928;2024-01-15T11:06:47;7.93;;;4.93;;
80159;SDS011;69486;59.082;37.928;2024-01-15T11:09:15;7.88;;;5.72;;
80159;SDS011;69486;59.082;37.928;2024-01-15T11:11:46;5.60;;;4.40;;
80159;SDS011;69486;59.082;37.928;2024-01-15T11:16:57;7.63;;;5.65;;
80159;SDS011;69486;59.082;37.928;2024-01-15T11:19:24;5.82;;;5.32;;
80159;SDS011;69486;59.082;37.928;2024-01-15T11:21:50;8.43;;;5.85;;
80159;SDS011;69486;59.082;37.928;2024-01-15T11:27:02;6.43;;;5.82;;
80159;SDS011;69486;59.082;37.928;2024-01-15T11:31:57;6.25;;;5.65;;
80159;SDS011;69486;59.082;37.928;2024-01-15T11:37:09;6.45;;;5.82;;
80159;SDS011;69486;59.082;37.928;2024-01-15T11:39:44;6.75;;;6.00;;
80159;SDS011;69486;59.082;37.928;2024-01-15T11:42:10;6.93;;;5.30;;
80159;SDS011;69486;59.082;37.928;2024-01-15T11:44:37;6.85;;;5.82;;
80159;SDS011;69486;59.082;37.928;2024-01-15T11:47:04;6.60;;;6.05;;
80159;SDS011;69486;59.082;37.928;2024-01-15T11:52:11;5.80;;;5.30;;
80159;SDS011;69486;59.082;37.928;2024-01-15T11:54:40;7.75;;;5.43;;
80159;SDS011;69486;59.082;37.928;2024-01-15T11:57:09;6.78;;;6.13;;
80159;SDS011;69486;59.082;37.928;2024-01-15T11:59:35;6.63;;;5.97;;
80159;SDS011;69486;59.082;37.928;2024-01-15T12:02:02;5.30;;;4.80;;
80159;SDS011;69486;59.082;37.928;2024-01-15T12:04:28;6.85;;;5.53;;
80159;SDS011;69486;59.082;37.928;2024-01-15T12:06:54;7.32;;;5.68;;
80159;SDS011;69486;59.082;37.928;2024-01-15T12:09:20;6.03;;;5.50;;
80159;SDS011;69486;59.082;37.928;2024-01-15T12:11:51;5.95;;;5.35;;
80159;SDS011;69486;59.082;37.928;2024-01-15T12:14:16;7.88;;;6.80;;
80159;SDS011;69486;59.082;37.928;2024-01-15T12:16:42;6.68;;;6.13;;
80159;SDS011;69486;59.082;37.928;2024-01-15T12:19:09;7.00;;;6.32;;
80159;SDS011;69486;59.082;37.928;2024-01-15T12:21:34;6.97;;;6.35;;
80159;SDS011;69486;59.082;37.928;2024-01-15T12:24:00;5.70;;;5.20;;
80159;SDS011;69486;59.082;37.928;2024-01-15T12:26:26;7.75;;;6.22;;
80159;SDS011;69486;59.082;37.928;2024-01-15T12:28:52;6.18;;;5.57;;
80159;SDS011;69486;59.082;37.928;2024-01-15T12:31:19;7.00;;;5.97;;
80159;SDS011;69486;59.082;37.928;2024-01-15T12:33:44;5.70;;;5.20;;
80159;SDS011;69486;59.082;37.928;2024-01-15T12:36:12;10.88;;;6.75;;
80159;SDS011;69486;59.082;37.928;2024-01-15T12:38:38;5.75;;;5.18;;
80159;SDS011;69486;59.082;37.928;2024-01-15T12:41:04;6.63;;;6.00;;
80159;SDS011;69486;59.082;37.928;2024-01-15T12:43:29;6.43;;;5.38;;
80159;SDS011;69486;59.082;37.928;2024-01-15T12:45:56;7.28;;;6.22;;
80159;SDS011;69486;59.082;37.928;2024-01-15T12:48:22;6.22;;;5.68;;
80159;SDS011;69486;59.082;37.928;2024-01-15T12:50:47;7.38;;;5.57;;
80159;SDS011;69486;59.082;37.928;2024-01-15T12:53:13;6.38;;;5.78;;
80159;SDS011;69486;59.082;37.928;2024-01-15T12:55:39;6.05;;;5.43;;
80159;SDS011;69486;59.082;37.928;2024-01-15T12:58:05;8.02;;;5.95;;
80159;SDS011;69486;59.082;37.928;2024-01-15T13:00:30;5.70;;;5.18;;
80159;SDS011;69486;59.082;37.928;2024-01-15T13:02:56;6.45;;;5.88;;
80159;SDS011;69486;59.082;37.928;2024-01-15T13:05:22;9.50;;;5.82;;
80159;SDS011;69486;59.082;37.928;2024-01-15T13:07:48;6.75;;;4.90;;
80159;SDS011;69486;59.082;37.928;2024-01-15T13:10:14;8.50;;;6.78;;
80159;SDS011;69486;59.082;37.928;2024-01-15T13:12:40;9.07;;;6.47;;
80159;SDS011;69486;59.082;37.928;2024-01-15T13:15:05;11.05;;;6.40;;
80159;SDS011;69486;59.082;37.928;2024-01-15T13:17:37;7.28;;;6.57;;
80159;SDS011;69486;59.082;37.928;2024-01-15T13:20:02;6.32;;;5.72;;
80159;SDS011;69486;59.082;37.928;2024-01-15T13:22:28;10.13;;;5.53;;
80159;SDS011;69486;59.082;37.928;2024-01-15T13:24:57;8.88;;;5.97;;
80159;SDS011;69486;59.082;37.928;2024-01-15T13:27:23;6.50;;;5.82;;
80159;SDS011;69486;59.082;37.928;2024-01-15T13:29:48;6.13;;;5.53;;
80159;SDS011;69486;59.082;37.928;2024-01-15T13:32:14;7.40;;;6.32;;
80159;SDS011;69486;59.082;37.928;2024-01-15T13:34:43;6.22;;;4.88;;
80159;SDS011;69486;59.082;37.928;2024-01-15T13:37:09;7.07;;;6.25;;
80159;SDS011;69486;59.082;37.928;2024-01-15T13:39:35;6.18;;;5.22;;
80159;SDS011;69486;59.082;37.928;2024-01-15T13:42:02;7.57;;;6.00;;
80159;SDS011;69486;59.082;37.928;2024-01-15T13:44:28;7.25;;;6.40;;
80159;SDS011;69486;59.082;37.928;2024-01-15T13:46:54;6.60;;;5.65;;
80159;SDS011;69486;59.082;37.928;2024-01-15T13:49:20;6.72;;;5.95;;
80159;SDS011;69486;59.082;37.928;2024-01-15T13:51:45;8.20;;;6.50;;
80159;SDS011;69486;59.082;37.928;2024-01-15T13:54:13;8.57;;;6.32;;
80159;SDS011;69486;59.082;37.928;2024-01-15T13:56:39;7.00;;;5.70;;
80159;SDS011;69486;59.082;37.928;2024-01-15T13:59:05;8.18;;;6.47;;
80159;SDS011;69486;59.082;37.928;2024-01-15T14:01:31;7.57;;;6.32;;
80159;SDS011;69486;59.082;37.928;2024-01-15T14:03:58;7.82;;;6.32;;
80159;SDS011;69486;59.082;37.928;2024-01-15T14:06:24;7.25;;;6.18;;
80159;SDS011;69486;59.082;37.928;2024-01-15T14:08:50;9.30;;;6.32;;
80159;SDS011;69486;59.082;37.928;2024-01-15T14:11:16;8.55;;;6.50;;
80159;SDS011;69486;59.082;37.928;2024-01-15T14:13:42;7.47;;;6.75;;
80159;SDS011;69486;59.082;37.928;2024-01-15T14:16:08;8.35;;;6.50;;
80159;SDS011;69486;59.082;37.928;2024-01-15T14:18:35;7.07;;;6.38;;
80159;SDS011;69486;59.082;37.928;2024-01-15T14:21:00;6.93;;;5.40;;
80159;SDS011;69486;59.082;37.928;2024-01-15T14:23:26;7.93;;;6.22;;
80159;SDS011;69486;59.082;37.928;2024-01-15T14:25:52;12.32;;;6.43;;
80159;SDS011;69486;59.082;37.928;2024-01-15T14:28:18;6.88;;;6.13;;
80159;SDS011;69486;59.082;37.928;2024-01-15T14:30:44;9.65;;;6.55;;
80159;SDS011;69486;59.082;37.928;2024-01-15T14:33:10;7.32;;;6.57;;
80159;SDS011;69486;59.082;37.928;2024-01-15T14:35:36;8.45;;;7.03;;
80159;SDS011;69486;59.082;37.928;2024-01-15T14:38:02;7.63;;;5.97;;
80159;SDS011;69486;59.082;37.928;2024-01-15T14:40:28;6.93;;;5.68;;